sensor_id;sensor_type;location;lat;lon;timestamp;pressure;altitude;pressure_sealevel;temperature;humidity
80308;BME280;69616;43.522;1.348;2023-05-08T00:00:46;100658.41;;;15.94;70.26
80308;BME280;69616;43.522;1.348;2023-05-08T00:03:12;100668.19;;;15.92;70.34
80308;BME280;69616;43.522;1.348;2023-05-08T00:05:41;100668.19;;;15.90;70.47
80308;BME280;69616;43.522;1.348;2023-05-08T00:08:06;100667.34;;;15.90;70.63
80308;BME280;69616;43.522;1.348;2023-05-08T00:10:32;100662.88;;;15.92;70.34
80308;BME280;69616;43.522;1.348;2023-05-08T00:12:57;100668.16;;;15.93;70.42
80308;BME280;69616;43.522;1.348;2023-05-08T00:15:23;100668.16;;;15.93;70.50
80308;BME280;69616;43.522;1.348;2023-05-08T00:17:48;100671.69;;;15.94;70.49
80308;BME280;69616;43.522;1.348;2023-05-08T00:20:14;100671.72;;;15.92;70.44
80308;BME280;69616;43.522;1.348;2023-05-08T00:22:39;100670.84;;;15.90;70.63
80308;BME280;69616;43.522;1.348;2023-05-08T00:25:04;100669.09;;;15.91;70.52
80308;BME280;69616;43.522;1.348;2023-05-08T00:27:31;100665.53;;;15.92;70.44
80308;BME280;69616;43.522;1.348;2023-05-08T00:29:56;100662.88;;;15.92;70.64
80308;BME280;69616;43.522;1.348;2023-05-08T00:32:22;100662.91;;;15.90;70.25
80308;BME280;69616;43.522;1.348;2023-05-08T00:34:48;100669.97;;;15.91;70.76
80308;BME280;69616;43.522;1.348;2023-05-08T00:37:13;100666.38;;;15.94;70.57
80308;BME280;69616;43.522;1.348;2023-05-08T00:39:39;100665.47;;;15.95;70.43
80308;BME280;69616;43.522;1.348;2023-05-08T00:42:04;100661.03;;;15.96;70.68
80308;BME280;69616;43.522;1.348;2023-05-08T00:44:29;100668.19;;;15.92;70.59
80308;BME280;69616;43.522;1.348;2023-05-08T00:46:55;100669.09;;;15.91;70.67
80308;BME280;69616;43.522;1.348;2023-05-08T00:49:21;100673.56;;;15.89;70.74
80308;BME280;69616;43.522;1.348;2023-05-08T00:51:46;100675.34;;;15.87;70.69
80308;BME280;69616;43.522;1.348;2023-05-08T00:54:14;100674.44;;;15.88;70.85
80308;BME280;69616;43.522;1.348;2023-05-08T00:56:41;100675.31;;;15.90;70.82
80308;BME280;69616;43.522;1.348;2023-05-08T00:59:08;100672.66;;;15.90;70.84
80308;BME280;69616;43.522;1.348;2023-05-08T01:01:36;100668.25;;;15.89;70.72
80308;BME280;69616;43.522;1.348;2023-05-08T01:04:05;100670.94;;;15.86;70.70
80308;BME280;69616;43.522;1.348;2023-05-08T01:06:31;100671.00;;;15.83;70.82
80308;BME280;69616;43.522;1.348;2023-05-08T01:08:58;100663.94;;;15.82;71.04
80308;BME280;69616;43.522;1.348;2023-05-08T01:11:55;100667.47;;;15.82;70.97
80308;BME280;69616;43.522;1.348;2023-05-08T01:17:26;100665.75;;;15.79;70.89
80308;BME280;69616;43.522;1.348;2023-05-08T01:29:09;100667.59;;;15.74;71.02
80308;BME280;69616;43.522;1.348;2023-05-08T01:34:22;100671.16;;;15.73;71.23
80308;BME280;69616;43.522;1.348;2023-05-08T01:36:53;100678.22;;;15.74;71.20
80308;BME280;69616;43.522;1.348;2023-05-08T01:45:04;100678.28;;;15.71;71.38
80308;BME280;69616;43.522;1.348;2023-05-08T01:47:32;100679.16;;;15.72;71.04
80308;BME280;69616;43.522;1.348;2023-05-08T01:50:14;100687.09;;;15.73;71.40
80308;BME280;69616;43.522;1.348;2023-05-08T01:52:44;100687.03;;;15.76;71.02
80308;BME280;69616;43.522;1.348;2023-05-08T01:55:19;100686.19;;;15.74;71.27
80308;BME280;69616;43.522;1.348;2023-05-08T01:57:51;100690.59;;;15.75;71.22
80308;BME280;69616;43.522;1.348;2023-05-08T02:00:20;100687.94;;;15.75;70.99
80308;BME280;69616;43.522;1.348;2023-05-08T02:02:47;100696.75;;;15.77;71.01
80308;BME280;69616;43.522;1.348;2023-05-08T02:05:14;100697.66;;;15.76;71.06
80308;BME280;69616;43.522;1.348;2023-05-08T02:07:41;100690.63;;;15.74;70.81
80308;BME280;69616;43.522;1.348;2023-05-08T02:10:09;100696.03;;;15.69;71.06
80308;BME280;69616;43.522;1.348;2023-05-08T02:12:36;100690.78;;;15.66;71.10
80308;BME280;69616;43.522;1.348;2023-05-08T02:15:04;100675.75;;;15.63;71.22
80308;BME280;69616;43.522;1.348;2023-05-08T02:17:32;100681.00;;;15.67;71.23
80308;BME280;69616;43.522;1.348;2023-05-08T02:20:01;100679.25;;;15.67;71.13
80308;BME280;69616;43.522;1.348;2023-05-08T02:22:28;100676.59;;;15.67;71.24
80308;BME280;69616;43.522;1.348;2023-05-08T02:24:56;100686.38;;;15.65;71.01
80308;BME280;69616;43.522;1.348;2023-05-08T02:27:24;100685.53;;;15.63;71.22
80308;BME280;69616;43.522;1.348;2023-05-08T02:29:51;100677.56;;;15.61;71.04
80308;BME280;69616;43.522;1.348;2023-05-08T02:32:18;100689.09;;;15.62;71.55
80308;BME280;69616;43.522;1.348;2023-05-08T02:34:46;100683.78;;;15.62;71.11
80308;BME280;69616;43.522;1.348;2023-05-08T02:37:13;100683.72;;;15.65;71.03
80308;BME280;69616;43.522;1.348;2023-05-08T02:39:41;100681.91;;;15.67;71.01
80308;BME280;69616;43.522;1.348;2023-05-08T02:42:08;100681.97;;;15.64;71.11
80308;BME280;69616;43.522;1.348;2023-05-08T02:44:33;100678.47;;;15.62;71.17
80308;BME280;69616;43.522;1.348;2023-05-08T02:47:05;100667.91;;;15.59;71.08
80308;BME280;69616;43.522;1.348;2023-05-08T02:52:12;100686.50;;;15.57;71.21
80308;BME280;69616;43.522;1.348;2023-05-08T02:54:50;100683.91;;;15.54;71.20
80308;BME280;69616;43.522;1.348;2023-05-08T02:57:34;100678.63;;;15.53;71.35
80308;BME280;69616;43.522;1.348;2023-05-08T03:00:04;100682.13;;;15.55;71.23
80308;BME280;69616;43.522;1.348;2023-05-08T03:02:40;100673.31;;;15.53;71.25
80308;BME280;69616;43.522;1.348;2023-05-08T03:05:14;100688.38;;;15.50;71.32
80308;BME280;69616;43.522;1.348;2023-05-08T03:07:41;100683.19;;;15.44;71.44
80308;BME280;69616;43.522;1.348;2023-05-08T03:10:13;100682.34;;;15.42;71.88
80308;BME280;69616;43.522;1.348;2023-05-08T03:12:44;100678.81;;;15.42;71.43
80308;BME280;69616;43.522;1.348;2023-05-08T03:15:18;100688.56;;;15.41;71.52
80308;BME280;69616;43.522;1.348;2023-05-08T03:17:47;100677.97;;;15.40;71.68
80308;BME280;69616;43.522;1.348;2023-05-08T03:20:16;100682.41;;;15.38;71.43
80308;BME280;69616;43.522;1.348;2023-05-08T03:22:43;100678.00;;;15.36;71.72
80308;BME280;69616;43.522;1.348;2023-05-08T03:25:12;100678.91;;;15.37;71.84
80308;BME280;69616;43.522;1.348;2023-05-08T03:27:38;100677.97;;;15.40;71.57
80308;BME280;69616;43.522;1.348;2023-05-08T03:30:06;100684.22;;;15.37;71.74
80308;BME280;69616;43.522;1.348;2023-05-08T03:32:33;100679.75;;;15.38;71.62
80308;BME280;69616;43.522;1.348;2023-05-08T03:35:00;100680.66;;;15.38;71.66
80308;BME280;69616;43.522;1.348;2023-05-08T03:37:27;100688.63;;;15.38;71.68
80308;BME280;69616;43.522;1.348;2023-05-08T03:39:53;100693.06;;;15.36;71.87
80308;BME280;69616;43.522;1.348;2023-05-08T03:42:19;100688.69;;;15.33;71.79
80308;BME280;69616;43.522;1.348;2023-05-08T03:44:52;100686.06;;;15.32;71.80
80308;BME280;69616;43.522;1.348;2023-05-08T03:47:19;100691.38;;;15.32;71.81
80308;BME280;69616;43.522;1.348;2023-05-08T03:49:46;100686.94;;;15.31;71.93
80308;BME280;69616;43.522;1.348;2023-05-08T03:52:13;100690.56;;;15.27;72.22
80308;BME280;69616;43.522;1.348;2023-05-08T03:54:39;100694.16;;;15.24;72.11
80308;BME280;69616;43.522;1.348;2023-05-08T03:57:04;100695.06;;;15.21;72.01
80308;BME280;69616;43.522;1.348;2023-05-08T04:02:31;100698.72;;;15.14;72.01
80308;BME280;69616;43.522;1.348;2023-05-08T04:05:02;100698.72;;;15.14;72.12
80308;BME280;69616;43.522;1.348;2023-05-08T04:07:47;100698.72;;;15.14;72.21
80308;BME280;69616;43.522;1.348;2023-05-08T04:15:28;100701.50;;;15.06;72.16
80308;BME280;69616;43.522;1.348;2023-05-08T04:18:03;100701.50;;;15.08;72.28
80308;BME280;69616;43.522;1.348;2023-05-08T04:20:30;100705.00;;;15.09;72.40
80308;BME280;69616;43.522;1.348;2023-05-08T04:22:57;100704.09;;;15.11;72.38
80308;BME280;69616;43.522;1.348;2023-05-08T04:25:24;100703.19;;;15.11;72.47
80308;BME280;69616;43.522;1.348;2023-05-08T04:27:51;100708.56;;;15.09;72.60
80308;BME280;69616;43.522;1.348;2023-05-08T04:30:17;100705.91;;;15.06;72.60
80308;BME280;69616;43.522;1.348;2023-05-08T04:32:43;100697.09;;;15.04;72.69
80308;BME280;69616;43.522;1.348;2023-05-08T04:35:09;100698.06;;;15.01;72.83
80308;BME280;69616;43.522;1.348;2023-05-08T04:37:34;100706.97;;;14.97;73.11
80308;BME280;69616;43.522;1.348;2023-05-08T04:40:00;100705.22;;;14.96;72.88
80308;BME280;69616;43.522;1.348;2023-05-08T04:42:26;100707.81;;;14.98;72.78
80308;BME280;69616;43.522;1.348;2023-05-08T04:44:52;100707.81;;;14.98;73.03
80308;BME280;69616;43.522;1.348;2023-05-08T04:47:18;100710.50;;;14.96;72.98
80308;BME280;69616;43.522;1.348;2023-05-08T04:49:44;100707.88;;;14.95;73.13
80308;BME280;69616;43.522;1.348;2023-05-08T04:52:10;100702.56;;;14.95;73.03
80308;BME280;69616;43.522;1.348;2023-05-08T04:54:35;100704.31;;;14.96;72.79
80308;BME280;69616;43.522;1.348;2023-05-08T04:57:01;100700.81;;;14.93;72.91
80308;BME280;69616;43.522;1.348;2023-05-08T04:59:26;100699.00;;;14.96;72.76
80308;BME280;69616;43.522;1.348;2023-05-08T05:01:53;100702.53;;;14.98;72.66
80308;BME280;69616;43.522;1.348;2023-05-08T05:04:20;100700.81;;;14.95;72.69
80308;BME280;69616;43.522;1.348;2023-05-08T05:06:46;100692.88;;;14.92;72.39
80308;BME280;69616;43.522;1.348;2023-05-08T05:09:11;100696.44;;;14.91;72.45
80308;BME280;69616;43.522;1.348;2023-05-08T05:11:36;100710.59;;;14.90;72.50
80308;BME280;69616;43.522;1.348;2023-05-08T05:14:02;100705.31;;;14.88;72.61
80308;BME280;69616;43.522;1.348;2023-05-08T05:16:27;100702.66;;;14.88;72.27
80308;BME280;69616;43.522;1.348;2023-05-08T05:18:53;100711.53;;;14.87;72.16
80308;BME280;69616;43.522;1.348;2023-05-08T05:21:18;100709.72;;;14.89;72.00
80308;BME280;69616;43.522;1.348;2023-05-08T05:23:44;100711.47;;;14.90;72.11
80308;BME280;69616;43.522;1.348;2023-05-08T05:26:10;100719.47;;;14.87;72.03
80308;BME280;69616;43.522;1.348;2023-05-08T05:28:35;100714.19;;;14.87;71.76
80308;BME280;69616;43.522;1.348;2023-05-08T05:31:01;100717.72;;;14.86;71.86
80308;BME280;69616;43.522;1.348;2023-05-08T05:33:27;100715.06;;;14.86;71.65
80308;BME280;69616;43.522;1.348;2023-05-08T05:35:52;100718.56;;;14.88;71.52
80308;BME280;69616;43.522;1.348;2023-05-08T05:38:17;100721.25;;;14.87;71.21
80308;BME280;69616;43.522;1.348;2023-05-08T05:40:43;100721.25;;;14.87;71.25
80308;BME280;69616;43.522;1.348;2023-05-08T05:43:08;100715.97;;;14.85;71.21
80308;BME280;69616;43.522;1.348;2023-05-08T05:45:33;100720.44;;;14.83;71.15
80308;BME280;69616;43.522;1.348;2023-05-08T05:48:00;100731.03;;;14.83;71.08
80308;BME280;69616;43.522;1.348;2023-05-08T05:50:26;100723.47;;;15.16;70.17
80308;BME280;69616;43.522;1.348;2023-05-08T05:52:52;100724.75;;;15.45;68.90
80308;BME280;69616;43.522;1.348;2023-05-08T05:55:18;100732.09;;;15.81;68.21
80308;BME280;69616;43.522;1.348;2023-05-08T05:57:44;100727.97;;;16.13;67.58
80308;BME280;69616;43.522;1.348;2023-05-08T06:00:09;100726.53;;;16.41;66.80
80308;BME280;69616;43.522;1.348;2023-05-08T06:02:35;100722.50;;;16.65;66.00
80308;BME280;69616;43.522;1.348;2023-05-08T06:05:01;100724.47;;;16.94;65.61
80308;BME280;69616;43.522;1.348;2023-05-08T06:07:27;100716.72;;;17.25;64.83
80308;BME280;69616;43.522;1.348;2023-05-08T06:09:52;100728.25;;;17.24;63.95
80308;BME280;69616;43.522;1.348;2023-05-08T06:12:18;100720.34;;;17.20;64.15
80308;BME280;69616;43.522;1.348;2023-05-08T06:14:44;100714.78;;;17.31;64.09
80308;BME280;69616;43.522;1.348;2023-05-08T06:17:10;100712.28;;;17.24;64.55
80308;BME280;69616;43.522;1.348;2023-05-08T06:19:35;100717.00;;;17.14;64.79
80308;BME280;69616;43.522;1.348;2023-05-08T06:22:01;100719.84;;;17.06;65.02
80308;BME280;69616;43.522;1.348;2023-05-08T06:24:27;100718.19;;;16.99;65.27
80308;BME280;69616;43.522;1.348;2023-05-08T06:26:52;100728.06;;;16.93;65.29
80308;BME280;69616;43.522;1.348;2023-05-08T06:29:18;100714.97;;;16.84;65.44
80308;BME280;69616;43.522;1.348;2023-05-08T06:31:43;100719.59;;;16.76;65.61
80308;BME280;69616;43.522;1.348;2023-05-08T06:34:08;100720.63;;;16.69;65.74
80308;BME280;69616;43.522;1.348;2023-05-08T06:36:34;100717.19;;;16.63;66.12
80308;BME280;69616;43.522;1.348;2023-05-08T06:39:00;100716.28;;;16.64;66.22
80308;BME280;69616;43.522;1.348;2023-05-08T06:41:26;100711.81;;;16.67;66.11
80308;BME280;69616;43.522;1.348;2023-05-08T06:43:51;100716.28;;;16.66;66.18
80308;BME280;69616;43.522;1.348;2023-05-08T06:46:17;100716.22;;;16.68;66.11
80308;BME280;69616;43.522;1.348;2023-05-08T06:48:42;100716.28;;;16.66;66.33
80308;BME280;69616;43.522;1.348;2023-05-08T06:51:07;100724.28;;;16.64;66.21
80308;BME280;69616;43.522;1.348;2023-05-08T06:53:33;100719.03;;;16.61;66.12
80308;BME280;69616;43.522;1.348;2023-05-08T06:55:58;100727.03;;;16.60;66.26
80308;BME280;69616;43.522;1.348;2023-05-08T06:58:24;100729.72;;;16.58;66.29
80308;BME280;69616;43.522;1.348;2023-05-08T07:00:49;100722.66;;;16.57;66.39
80308;BME280;69616;43.522;1.348;2023-05-08T07:03:15;100725.34;;;16.56;66.26
80308;BME280;69616;43.522;1.348;2023-05-08T07:05:40;100722.63;;;16.59;66.02
80308;BME280;69616;43.522;1.348;2023-05-08T07:08:06;100728.75;;;16.62;66.18
80308;BME280;69616;43.522;1.348;2023-05-08T07:10:32;100719.84;;;16.65;66.14
80308;BME280;69616;43.522;1.348;2023-05-08T07:12:57;100721.63;;;16.64;66.14
80308;BME280;69616;43.522;1.348;2023-05-08T07:15:22;100719.84;;;16.65;66.16
80308;BME280;69616;43.522;1.348;2023-05-08T07:17:48;100722.38;;;16.70;66.32
80308;BME280;69616;43.522;1.348;2023-05-08T07:20:13;100730.94;;;16.84;65.95
80308;BME280;69616;43.522;1.348;2023-05-08T07:22:39;100732.38;;;16.98;65.65
80308;BME280;69616;43.522;1.348;2023-05-08T07:25:05;100725.16;;;17.06;65.26
80308;BME280;69616;43.522;1.348;2023-05-08T07:27:30;100730.16;;;17.18;65.19
80308;BME280;69616;43.522;1.348;2023-05-08T07:29:55;100727.38;;;17.25;64.78
80308;BME280;69616;43.522;1.348;2023-05-08T07:32:28;100726.16;;;17.38;64.33
80308;BME280;69616;43.522;1.348;2023-05-08T07:34:55;100728.38;;;17.55;63.95
80308;BME280;69616;43.522;1.348;2023-05-08T07:37:21;100724.41;;;17.72;63.88
80308;BME280;69616;43.522;1.348;2023-05-08T07:39:47;100723.22;;;17.82;63.16
80308;BME280;69616;43.522;1.348;2023-05-08T07:42:12;100717.41;;;18.02;62.94
80308;BME280;69616;43.522;1.348;2023-05-08T07:44:38;100720.28;;;18.26;62.39
80308;BME280;69616;43.522;1.348;2023-05-08T07:47:03;100722.88;;;18.59;61.62
80308;BME280;69616;43.522;1.348;2023-05-08T07:49:29;100721.09;;;18.88;60.78
80308;BME280;69616;43.522;1.348;2023-05-08T07:51:54;100721.25;;;19.12;60.24
80308;BME280;69616;43.522;1.348;2023-05-08T07:54:20;100724.97;;;19.35;60.23
80308;BME280;69616;43.522;1.348;2023-05-08T07:56:45;100722.25;;;19.63;59.79
80308;BME280;69616;43.522;1.348;2023-05-08T07:59:11;100721.19;;;19.94;59.21
80308;BME280;69616;43.522;1.348;2023-05-08T08:01:36;100721.28;;;20.17;58.09
80308;BME280;69616;43.522;1.348;2023-05-08T08:04:02;100725.31;;;20.29;58.26
80308;BME280;69616;43.522;1.348;2023-05-08T08:06:27;100731.19;;;20.39;57.72
80308;BME280;69616;43.522;1.348;2023-05-08T08:08:53;100727.34;;;20.46;56.63
80308;BME280;69616;43.522;1.348;2023-05-08T08:11:18;100728.72;;;20.56;56.67
80308;BME280;69616;43.522;1.348;2023-05-08T08:13:44;100717.44;;;20.72;56.42
80308;BME280;69616;43.522;1.348;2023-05-08T08:16:09;100725.72;;;20.89;55.14
80308;BME280;69616;43.522;1.348;2023-05-08T08:18:34;100714.56;;;21.00;55.38
80308;BME280;69616;43.522;1.348;2023-05-08T08:21:04;100705.25;;;21.09;54.80
80308;BME280;69616;43.522;1.348;2023-05-08T08:23:29;100706.78;;;21.16;54.53
80308;BME280;69616;43.522;1.348;2023-05-08T08:25:54;100709.88;;;21.28;54.14
80308;BME280;69616;43.522;1.348;2023-05-08T08:28:20;100705.34;;;21.07;54.05
80308;BME280;69616;43.522;1.348;2023-05-08T08:30:46;100707.91;;;20.88;54.36
80308;BME280;69616;43.522;1.348;2023-05-08T08:33:12;100711.44;;;20.89;54.39
80308;BME280;69616;43.522;1.348;2023-05-08T08:35:37;100711.56;;;20.86;53.94
80308;BME280;69616;43.522;1.348;2023-05-08T08:38:02;100712.19;;;20.92;53.97
80308;BME280;69616;43.522;1.348;2023-05-08T08:40:28;100705.66;;;21.00;53.17
80308;BME280;69616;43.522;1.348;2023-05-08T08:42:54;100712.94;;;20.96;53.49
80308;BME280;69616;43.522;1.348;2023-05-08T08:45:19;100712.63;;;21.04;53.82
80308;BME280;69616;43.522;1.348;2023-05-08T08:47:47;100711.69;;;21.05;53.03
80308;BME280;69616;43.522;1.348;2023-05-08T08:50:13;100728.94;;;20.98;52.48
80308;BME280;69616;43.522;1.348;2023-05-08T08:52:59;100731.63;;;20.74;52.81
80308;BME280;69616;43.522;1.348;2023-05-08T08:55:25;100728.84;;;20.53;52.96
80308;BME280;69616;43.522;1.348;2023-05-08T09:00:27;100734.88;;;20.34;53.19
80308;BME280;69616;43.522;1.348;2023-05-08T09:02:54;100729.94;;;20.47;53.34
80308;BME280;69616;43.522;1.348;2023-05-08T09:05:21;100735.09;;;20.54;53.47
80308;BME280;69616;43.522;1.348;2023-05-08T09:07:46;100738.91;;;20.46;53.45
80308;BME280;69616;43.522;1.348;2023-05-08T09:10:12;100736.75;;;20.32;53.48
80308;BME280;69616;43.522;1.348;2023-05-08T09:12:40;100741.06;;;20.36;53.70
80308;BME280;69616;43.522;1.348;2023-05-08T09:15:06;100748.50;;;20.52;53.85
80308;BME280;69616;43.522;1.348;2023-05-08T09:17:31;100755.44;;;20.58;53.78
80308;BME280;69616;43.522;1.348;2023-05-08T09:19:57;100755.59;;;20.53;53.73
80308;BME280;69616;43.522;1.348;2023-05-08T09:22:23;100759.72;;;20.38;53.81
80308;BME280;69616;43.522;1.348;2023-05-08T09:24:58;100765.81;;;20.18;52.39
80308;BME280;69616;43.522;1.348;2023-05-08T09:27:28;100764.63;;;20.01;53.79
80308;BME280;69616;43.522;1.348;2023-05-08T09:30:06;100760.03;;;20.05;53.77
80308;BME280;69616;43.522;1.348;2023-05-08T09:32:36;100755.00;;;20.21;53.29
80308;BME280;69616;43.522;1.348;2023-05-08T09:35:03;100754.44;;;20.36;53.54
80308;BME280;69616;43.522;1.348;2023-05-08T09:37:29;100757.31;;;20.56;53.35
80308;BME280;69616;43.522;1.348;2023-05-08T09:42:39;100756.41;;;21.03;52.57
80308;BME280;69616;43.522;1.348;2023-05-08T09:45:05;100747.38;;;21.05;52.01
80308;BME280;69616;43.522;1.348;2023-05-08T09:47:31;100758.16;;;21.04;52.21
80308;BME280;69616;43.522;1.348;2023-05-08T09:50:01;100757.22;;;21.05;52.16
80308;BME280;69616;43.522;1.348;2023-05-08T09:52:28;100744.63;;;21.29;51.03
80308;BME280;69616;43.522;1.348;2023-05-08T09:55:01;100740.78;;;21.57;50.43
80308;BME280;69616;43.522;1.348;2023-05-08T09:57:28;100738.88;;;21.61;50.63
80308;BME280;69616;43.522;1.348;2023-05-08T10:02:31;100743.84;;;21.91;50.40
80308;BME280;69616;43.522;1.348;2023-05-08T10:04:56;100733.91;;;22.14;49.74
80308;BME280;69616;43.522;1.348;2023-05-08T10:07:30;100732.22;;;22.11;49.38
80308;BME280;69616;43.522;1.348;2023-05-08T10:10:05;100726.28;;;22.04;49.64
80308;BME280;69616;43.522;1.348;2023-05-08T10:12:31;100725.47;;;22.02;49.74
80308;BME280;69616;43.522;1.348;2023-05-08T10:14:58;100730.72;;;21.85;49.56
80308;BME280;69616;43.522;1.348;2023-05-08T10:18:25;100731.25;;;21.72;49.72
80308;BME280;69616;43.522;1.348;2023-05-08T10:20:32;100741.94;;;21.94;49.44
80308;BME280;69616;43.522;1.348;2023-05-08T10:22:58;100735.16;;;22.06;48.61
80308;BME280;69616;43.522;1.348;2023-05-08T10:25:25;100726.16;;;22.07;47.90
80308;BME280;69616;43.522;1.348;2023-05-08T10:28:01;100719.97;;;22.05;48.10
80308;BME280;69616;43.522;1.348;2023-05-08T10:30:30;100723.53;;;22.06;48.09
80308;BME280;69616;43.522;1.348;2023-05-08T10:32:59;100725.31;;;22.05;48.16
80308;BME280;69616;43.522;1.348;2023-05-08T10:35:27;100722.88;;;22.01;48.46
80308;BME280;69616;43.522;1.348;2023-05-08T10:37:53;100723.81;;;22.00;48.80
80308;BME280;69616;43.522;1.348;2023-05-08T10:40:21;100723.22;;;21.93;48.18
80308;BME280;69616;43.522;1.348;2023-05-08T10:42:47;100723.06;;;21.96;47.73
80308;BME280;69616;43.522;1.348;2023-05-08T10:45:13;100728.72;;;21.90;47.67
80308;BME280;69616;43.522;1.348;2023-05-08T10:51:02;100708.00;;;22.33;47.87
80308;BME280;69616;43.522;1.348;2023-05-08T10:56:05;100702.09;;;23.02;47.13
80308;BME280;69616;43.522;1.348;2023-05-08T10:58:32;100694.38;;;23.13;46.68
80308;BME280;69616;43.522;1.348;2023-05-08T11:03:29;100686.63;;;23.25;45.70
80308;BME280;69616;43.522;1.348;2023-05-08T11:05:56;100685.13;;;23.38;46.04
80308;BME280;69616;43.522;1.348;2023-05-08T11:08:24;100685.50;;;23.30;45.63
80308;BME280;69616;43.522;1.348;2023-05-08T11:13:33;100678.06;;;22.81;45.86
80308;BME280;69616;43.522;1.348;2023-05-08T11:15:59;100675.81;;;22.72;46.26
80308;BME280;69616;43.522;1.348;2023-05-08T11:18:26;100664.22;;;22.71;46.28
80308;BME280;69616;43.522;1.348;2023-05-08T11:23:24;100667.59;;;22.75;44.90
80308;BME280;69616;43.522;1.348;2023-05-08T11:26:12;100655.53;;;22.84;45.93
80308;BME280;69616;43.522;1.348;2023-05-08T11:28:56;100655.13;;;22.74;46.10
80308;BME280;69616;43.522;1.348;2023-05-08T11:31:22;100658.16;;;22.66;46.07
80308;BME280;69616;43.522;1.348;2023-05-08T11:33:48;100656.84;;;22.57;46.30
80308;BME280;69616;43.522;1.348;2023-05-08T11:36:14;100647.03;;;22.56;46.71
80308;BME280;69616;43.522;1.348;2023-05-08T11:38:40;100643.91;;;22.65;46.64
80308;BME280;69616;43.522;1.348;2023-05-08T11:41:20;100636.69;;;22.85;46.48
80308;BME280;69616;43.522;1.348;2023-05-08T11:49:17;100615.56;;;23.32;45.13
80308;BME280;69616;43.522;1.348;2023-05-08T11:51:49;100606.72;;;23.30;44.52
80308;BME280;69616;43.522;1.348;2023-05-08T11:54:19;100598.78;;;23.27;45.16
80308;BME280;69616;43.522;1.348;2023-05-08T11:56:45;100606.63;;;23.31;45.27
80308;BME280;69616;43.522;1.348;2023-05-08T11:59:11;100612.88;;;23.32;45.56
80308;BME280;69616;43.522;1.348;2023-05-08T12:01:37;100611.84;;;23.34;45.40
80308;BME280;69616;43.522;1.348;2023-05-08T12:04:07;100603.31;;;23.26;44.32
80308;BME280;69616;43.522;1.348;2023-05-08T12:06:35;100592.53;;;23.08;45.02
80308;BME280;69616;43.522;1.348;2023-05-08T12:09:08;100592.38;;;22.94;45.49
80308;BME280;69616;43.522;1.348;2023-05-08T12:11:34;100597.50;;;22.81;45.17
80308;BME280;69616;43.522;1.348;2023-05-08T12:13:59;100591.56;;;22.74;45.49
80308;BME280;69616;43.522;1.348;2023-05-08T12:16:25;100591.25;;;22.80;45.62
80308;BME280;69616;43.522;1.348;2023-05-08T12:18:51;100603.28;;;22.91;45.58
80308;BME280;69616;43.522;1.348;2023-05-08T12:21:17;100603.13;;;22.94;45.52
80308;BME280;69616;43.522;1.348;2023-05-08T12:23:43;100601.78;;;23.03;45.08
80308;BME280;69616;43.522;1.348;2023-05-08T12:26:09;100586.31;;;23.26;44.66
80308;BME280;69616;43.522;1.348;2023-05-08T12:28:37;100571.09;;;23.60;44.45
80308;BME280;69616;43.522;1.348;2023-05-08T12:31:02;100577.59;;;23.89;44.07
80308;BME280;69616;43.522;1.348;2023-05-08T12:33:28;100584.03;;;24.03;43.60
80308;BME280;69616;43.522;1.348;2023-05-08T12:35:55;100586.88;;;24.00;43.64
80308;BME280;69616;43.522;1.348;2023-05-08T12:38:25;100573.06;;;23.90;43.18
80308;BME280;69616;43.522;1.348;2023-05-08T12:40:50;100557.06;;;24.04;42.72
80308;BME280;69616;43.522;1.348;2023-05-08T12:43:36;100566.56;;;23.94;42.83
80308;BME280;69616;43.522;1.348;2023-05-08T12:46:02;100557.13;;;24.19;42.31
80308;BME280;69616;43.522;1.348;2023-05-08T12:48:29;100554.84;;;24.59;42.79
80308;BME280;69616;43.522;1.348;2023-05-08T12:51:00;100549.50;;;24.90;42.21
80308;BME280;69616;43.522;1.348;2023-05-08T12:53:29;100559.06;;;25.10;40.79
80308;BME280;69616;43.522;1.348;2023-05-08T12:55:57;100553.53;;;25.28;40.13
80308;BME280;69616;43.522;1.348;2023-05-08T12:58:24;100548.72;;;25.33;39.91
80308;BME280;69616;43.522;1.348;2023-05-08T13:00:51;100563.66;;;25.39;40.83
80308;BME280;69616;43.522;1.348;2023-05-08T13:03:27;100561.78;;;25.10;40.70
80308;BME280;69616;43.522;1.348;2023-05-08T13:05:57;100556.31;;;24.81;41.17
80308;BME280;69616;43.522;1.348;2023-05-08T13:08:36;100554.25;;;24.54;41.66
80308;BME280;69616;43.522;1.348;2023-05-08T13:11:05;100553.03;;;24.44;41.31
80308;BME280;69616;43.522;1.348;2023-05-08T13:13:35;100558.69;;;24.23;41.49
80308;BME280;69616;43.522;1.348;2023-05-08T13:16:02;100560.22;;;23.95;42.33
80308;BME280;69616;43.522;1.348;2023-05-08T13:18:28;100546.31;;;23.71;42.41
80308;BME280;69616;43.522;1.348;2023-05-08T13:20:54;100549.06;;;23.69;42.64
80308;BME280;69616;43.522;1.348;2023-05-08T13:23:21;100549.00;;;23.71;43.19
80308;BME280;69616;43.522;1.348;2023-05-08T13:25:46;100556.09;;;24.05;43.07
80308;BME280;69616;43.522;1.348;2023-05-08T13:28:11;100544.09;;;24.43;42.69
80308;BME280;69616;43.522;1.348;2023-05-08T13:30:37;100545.94;;;24.73;41.97
80308;BME280;69616;43.522;1.348;2023-05-08T13:33:03;100548.41;;;24.78;41.19
80308;BME280;69616;43.522;1.348;2023-05-08T13:35:29;100546.31;;;24.83;41.52
80308;BME280;69616;43.522;1.348;2023-05-08T13:37:55;100539.59;;;24.90;41.35
80308;BME280;69616;43.522;1.348;2023-05-08T13:40:22;100543.81;;;24.94;41.69
80308;BME280;69616;43.522;1.348;2023-05-08T13:42:47;100547.66;;;24.76;40.79
80308;BME280;69616;43.522;1.348;2023-05-08T13:45:13;100543.31;;;24.57;41.30
80308;BME280;69616;43.522;1.348;2023-05-08T13:47:40;100534.56;;;24.37;40.98
80308;BME280;69616;43.522;1.348;2023-05-08T13:50:10;100526.84;;;24.31;41.10